首页
METAR-TAF:

METAR-TAF

机场 :

Aransas County Airport

罗克波特, 得克萨斯州, 美国

纬度: 28-05-01N, 经度: 097-02-47W, 海拔: 7米

当前天气观测

该预报发布于1小时和17分钟前的21:53 UTC
风速7节,风向南转南东,有时为15节阵风
温度 32°C
湿度 67%
气压 1015 hPa
能見度: 11.3公里
天空无云

METAR: KRKP 152153Z AUTO 16007G15KT 7SM CLR 32/25 A2997 RMK AO2 SLP150 T03220250

时间: 18:10 (23:10 UTC)


TAF: 丢失

超过4000个机场的气象观测和天气预报(METAR&TAF报告)。

可查询的气象台以黄色和红色小点在地图上表示。

将鼠标移到小点上方,可查看气象台名称。

然后点击查看天气观测和预报。

如需切换地图:点击带黑十字的绿色按钮放大地图;点击带横线的绿色按钮缩小地图;或者点击绿色箭头查看邻近地区的地图。


METAR-TAF: